Bulk Norway — 9HA2862 — position and weather

sailwx.info

Track history (hours):
 
Tides and Currents Weather Stations Pressure Air Temp Water Temp Dewpoint Dewpoint Depression Visibility Wind Speed Wind Dir Waves Ship Positions

Bulk Norway

Last reported at 2017-Mar-21 00:28 UTC. Time now 2017-Mar-30 04:58 UTC.
Position S 19°27' E 118°21'.
Warning: this ship's position is 9 days out of date.

Length 292 m; draft 18.3 m.

Type: Cargo ship. MMSI: 256456000.

Date/timePositionNaut miles runAvg speedWind from/ knotsBaromVisibWave heightAir tempDewpointWater temp
2017-Mar-21 00:28S 19°27' E 118°21'9 9.4
2017-Mar-20 23:32S 19°35' E 118°23'10 9.5
2017-Mar-20 22:29S 19°45' E 118°25'19 9.6
2017-Mar-20 20:31S 20°04' E 118°25'18 2.9
2017-Mar-20 14:18S 20°19' E 118°35'0 0.0
2017-Mar-20 12:18S 20°19' E 118°35'0 0.0
2017-Mar-20 09:12S 20°19' E 118°35'0 0.0
2017-Mar-19 10:24S 20°19' E 118°35'0 0.0
2017-Mar-19 09:30S 20°19' E 118°35'0 0.0
2017-Mar-19 08:06S 20°19' E 118°35'0 0.0
2017-Mar-19 05:18S 20°19' E 118°35'15 0.9
2017-Mar-18 11:18S 20°04' E 118°37'0 0.0
2017-Mar-18 08:24S 20°04' E 118°37'0 0.1
2017-Mar-18 04:12S 20°04' E 118°37'0 0.0
2017-Mar-18 00:30S 20°04' E 118°37'0 0.1
2017-Mar-17 23:06S 20°04' E 118°37'0 0.0
2017-Mar-17 17:24S 20°04' E 118°37'0 0.0
2017-Mar-17 16:30S 20°04' E 118°37'0 0.0
2017-Mar-17 15:18S 20°04' E 118°37'0 0.0
2017-Mar-17 13:24S 20°04' E 118°37'0 0.0
2017-Mar-17 12:18S 20°04' E 118°37'0 0.1
2017-Mar-17 11:24S 20°04' E 118°37'0 0.2
2017-Mar-17 10:24S 20°04' E 118°37'0 0.1
2017-Mar-17 09:30S 20°04' E 118°37'0 0.1
2017-Mar-17 07:24S 20°04' E 118°37'0 0.1
2017-Mar-17 04:24S 20°04' E 118°37'0 0.0
2017-Mar-17 03:30S 20°04' E 118°37'0 0.0
2017-Mar-16 20:18S 20°04' E 118°37'0 0.1
2017-Mar-16 19:06S 20°04' E 118°37'0 0.1
2017-Mar-16 16:24S 20°04' E 118°37'0 0.0
2017-Mar-16 15:30S 20°04' E 118°37'0 0.0
2017-Mar-16 13:30S 20°04' E 118°37'0 0.1
2017-Mar-16 12:30S 20°04' E 118°37'0 0.1
2017-Mar-16 10:30S 20°04' E 118°37'0 0.0
2017-Mar-16 07:30S 20°04' E 118°37'0 0.1
2017-Mar-16 05:30S 20°04' E 118°37'0 0.0
2017-Mar-16 03:24S 20°04' E 118°37'0 0.0
2017-Mar-16 01:24S 20°04' E 118°37'0 0.0
2017-Mar-15 23:24S 20°04' E 118°37'0 0.1
2017-Mar-15 19:30S 20°04' E 118°37'0 0.1
2017-Mar-15 17:30S 20°04' E 118°37'0 0.0
2017-Mar-15 13:14S 20°04' E 118°37'0 0.0
2017-Mar-15 12:32S 20°04' E 118°37'25 6.0
2017-Mar-15 08:26S 19°43' E 118°24'13 9.9
2017-Mar-15 07:05S 19°30' E 118°21'1010.3
2017-Mar-15 06:09S 19°21' E 118°19'  
Track history (hours):
 
Tides and Currents Weather Stations Pressure Air Temp Water Temp Dewpoint Dewpoint Depression Visibility Wind Speed Wind Dir Waves Ship Positions

Bulk Norway

Last reported at 2017-Mar-21 00:28 UTC. Time now 2017-Mar-30 04:58 UTC.
Position S 19°27' E 118°21'.
Warning: this ship's position is 9 days out of date.

Length 292 m; draft 18.3 m.

Type: Cargo ship. MMSI: 256456000.

Date/timePositionNaut miles runAvg speedWind from/ knotsBaromVisibWave heightAir tempDewpointWater temp
2017-Mar-21 00:28S 19°27' E 118°21'9 9.4
2017-Mar-20 23:32S 19°35' E 118°23'10 9.5
2017-Mar-20 22:29S 19°45' E 118°25'19 9.6
2017-Mar-20 20:31S 20°04' E 118°25'18 2.9
2017-Mar-20 14:18S 20°19' E 118°35'0 0.0
2017-Mar-20 12:18S 20°19' E 118°35'0 0.0
2017-Mar-20 09:12S 20°19' E 118°35'0 0.0
2017-Mar-19 10:24S 20°19' E 118°35'0 0.0
2017-Mar-19 09:30S 20°19' E 118°35'0 0.0
2017-Mar-19 08:06S 20°19' E 118°35'0 0.0
2017-Mar-19 05:18S 20°19' E 118°35'15 0.9
2017-Mar-18 11:18S 20°04' E 118°37'0 0.0
2017-Mar-18 08:24S 20°04' E 118°37'0 0.1
2017-Mar-18 04:12S 20°04' E 118°37'0 0.0
2017-Mar-18 00:30S 20°04' E 118°37'0 0.1
2017-Mar-17 23:06S 20°04' E 118°37'0 0.0
2017-Mar-17 17:24S 20°04' E 118°37'0 0.0
2017-Mar-17 16:30S 20°04' E 118°37'0 0.0
2017-Mar-17 15:18S 20°04' E 118°37'0 0.0
2017-Mar-17 13:24S 20°04' E 118°37'0 0.0
2017-Mar-17 12:18S 20°04' E 118°37'0 0.1
2017-Mar-17 11:24S 20°04' E 118°37'0 0.2
2017-Mar-17 10:24S 20°04' E 118°37'0 0.1
2017-Mar-17 09:30S 20°04' E 118°37'0 0.1
2017-Mar-17 07:24S 20°04' E 118°37'0 0.1
2017-Mar-17 04:24S 20°04' E 118°37'0 0.0
2017-Mar-17 03:30S 20°04' E 118°37'0 0.0
2017-Mar-16 20:18S 20°04' E 118°37'0 0.1
2017-Mar-16 19:06S 20°04' E 118°37'0 0.1
2017-Mar-16 16:24S 20°04' E 118°37'0 0.0
2017-Mar-16 15:30S 20°04' E 118°37'0 0.0
2017-Mar-16 13:30S 20°04' E 118°37'0 0.1
2017-Mar-16 12:30S 20°04' E 118°37'0 0.1
2017-Mar-16 10:30S 20°04' E 118°37'0 0.0
2017-Mar-16 07:30S 20°04' E 118°37'0 0.1
2017-Mar-16 05:30S 20°04' E 118°37'0 0.0
2017-Mar-16 03:24S 20°04' E 118°37'0 0.0
2017-Mar-16 01:24S 20°04' E 118°37'0 0.0
2017-Mar-15 23:24S 20°04' E 118°37'0 0.1
2017-Mar-15 19:30S 20°04' E 118°37'0 0.1
2017-Mar-15 17:30S 20°04' E 118°37'0 0.0
2017-Mar-15 13:14S 20°04' E 118°37'0 0.0
2017-Mar-15 12:32S 20°04' E 118°37'25 6.0
2017-Mar-15 08:26S 19°43' E 118°24'13 9.9
2017-Mar-15 07:05S 19°30' E 118°21'1010.3
2017-Mar-15 06:09S 19°21' E 118°19'  

Dump ship's entire track history